createdAt,value
2018-03-26T00:04:05.738Z,14.28
2018-03-26T00:09:56.612Z,13.73
2018-03-26T00:15:47.454Z,14.79
2018-03-26T00:21:38.302Z,15.5
2018-03-26T00:27:29.135Z,15.02
2018-03-26T00:33:20.112Z,13.87
2018-03-26T00:39:10.881Z,14.23
2018-03-26T00:45:01.733Z,13.46
2018-03-26T00:50:52.568Z,21.01
2018-03-26T00:56:43.436Z,17.27
2018-03-26T01:02:34.280Z,16.44
2018-03-26T01:08:25.150Z,14.79
2018-03-26T01:14:16.023Z,14.04
2018-03-26T01:20:06.875Z,13.76
2018-03-26T01:25:57.666Z,12.5
2018-03-26T01:31:48.549Z,13.95
2018-03-26T01:37:39.394Z,14.31
2018-03-26T01:43:30.239Z,13.03
2018-03-26T01:49:21.102Z,12.71
2018-03-26T01:55:11.952Z,13.12
2018-03-26T02:01:02.825Z,13.2
2018-03-26T02:06:53.683Z,11.29
2018-03-26T02:12:44.527Z,14.21
2018-03-26T02:18:35.403Z,13.25
2018-03-26T02:24:26.244Z,11.3
2018-03-26T02:30:17.113Z,14.38
2018-03-26T02:36:07.934Z,12.77
2018-03-26T02:41:58.802Z,18.24
2018-03-26T02:47:49.634Z,14.24
2018-03-26T02:53:40.488Z,12.99
2018-03-26T02:59:31.359Z,10.81
2018-03-26T03:05:22.216Z,14.39
2018-03-26T03:11:13.119Z,11.57
2018-03-26T03:17:03.906Z,9.55
2018-03-26T03:22:54.774Z,14.44
2018-03-26T03:28:45.592Z,11.68
2018-03-26T03:34:36.489Z,11.97
2018-03-26T03:40:27.282Z,12.2
2018-03-26T03:46:18.156Z,11.3
2018-03-26T03:52:09.049Z,11.42
2018-03-26T03:57:59.865Z,12.95
2018-03-26T04:03:50.683Z,13.82
2018-03-26T04:09:41.597Z,11.08
2018-03-26T04:15:32.410Z,11.88
2018-03-26T04:21:23.262Z,16.02
2018-03-26T04:27:14.116Z,12.19
2018-03-26T04:33:04.979Z,13.03
2018-03-26T04:38:55.837Z,13.43
2018-03-26T04:44:46.694Z,16.25
2018-03-26T04:50:37.563Z,14.29
2018-03-26T04:56:28.377Z,12.45
2018-03-26T05:02:19.193Z,16.22
2018-03-26T05:08:10.037Z,13.42
2018-03-26T05:14:00.911Z,18.02
2018-03-26T05:19:51.755Z,13.61
2018-03-26T05:25:42.599Z,14.7
2018-03-26T05:31:33.445Z,12.75
2018-03-26T05:37:24.291Z,20.41
2018-03-26T05:43:15.167Z,25.54
2018-03-26T05:49:06.034Z,27.32
2018-03-26T05:54:56.840Z,65.49
2018-03-26T06:00:47.686Z,72.77
2018-03-26T06:06:38.578Z,108.59
2018-03-26T06:12:29.351Z,90.15
2018-03-26T06:18:20.218Z,95.57
2018-03-26T06:24:11.070Z,78.1
2018-03-26T06:30:01.932Z,68.71
2018-03-26T06:35:52.782Z,75.19
2018-03-26T06:41:43.612Z,68.93
2018-03-26T06:47:34.470Z,78.06
2018-03-26T06:53:25.376Z,91.14
2018-03-26T06:59:16.135Z,93.02
2018-03-26T07:05:07.012Z,96.86
2018-03-26T07:10:57.868Z,87.56
2018-03-26T07:16:48.672Z,68.72
2018-03-26T07:22:39.507Z,56.4
2018-03-26T07:28:30.365Z,46.69
2018-03-26T07:34:21.201Z,43.87
2018-03-26T07:40:12.088Z,38.48
2018-03-26T07:46:02.964Z,28.32
2018-03-26T07:51:53.861Z,28.05
2018-03-26T07:57:44.668Z,25.33
2018-03-26T08:03:35.523Z,31.34
2018-03-26T08:09:26.407Z,25.2
2018-03-26T08:15:17.227Z,22.94
2018-03-26T08:21:08.060Z,24.44
2018-03-26T08:26:58.885Z,19.09
2018-03-26T08:32:49.794Z,17.21
2018-03-26T08:38:40.637Z,19.84
2018-03-26T08:44:31.503Z,18.83
2018-03-26T08:50:22.429Z,18.24
2018-03-26T08:56:13.188Z,16.65
2018-03-26T09:02:04.080Z,15.01
2018-03-26T09:07:54.973Z,15.26
2018-03-26T09:13:45.762Z,13.45
2018-03-26T09:19:36.645Z,15
2018-03-26T09:25:27.498Z,14.86
2018-03-26T09:31:18.345Z,15.18
2018-03-26T09:37:09.280Z,10.52
2018-03-26T09:43:00.056Z,11.82
2018-03-26T09:48:50.926Z,11.64
2018-03-26T09:54:41.774Z,10.92
2018-03-26T10:00:32.708Z,12.42
2018-03-26T10:06:23.539Z,12.31
2018-03-26T10:12:14.396Z,11.09
2018-03-26T10:18:05.277Z,10.82
2018-03-26T10:23:56.155Z,11.72
2018-03-26T10:29:46.979Z,14.87
2018-03-26T10:35:37.908Z,15.1
2018-03-26T10:41:28.754Z,14.93
2018-03-26T10:47:19.611Z,18.81
2018-03-26T10:53:10.504Z,14.92
2018-03-26T10:59:01.378Z,15.23
2018-03-26T11:04:52.285Z,14.74
2018-03-26T11:10:43.074Z,12.73
2018-03-26T11:16:33.972Z,11.17
2018-03-26T11:22:24.788Z,11.5
2018-03-26T11:28:15.690Z,10.8
2018-03-26T11:34:06.563Z,10.45
2018-03-26T11:39:57.474Z,11.59
2018-03-26T11:45:48.368Z,11.78
2018-03-26T11:51:39.171Z,11.82
2018-03-26T11:57:30.111Z,16.13
2018-03-26T12:03:21.027Z,12.14
2018-03-26T12:09:11.926Z,11.47
2018-03-26T12:15:02.755Z,14.18
2018-03-26T12:20:53.653Z,13.05
2018-03-26T12:26:44.616Z,14.68
2018-03-26T12:32:35.464Z,13.83
2018-03-26T12:38:26.348Z,10.29
2018-03-26T12:44:17.295Z,11.69
2018-03-26T12:50:08.134Z,14.52
2018-03-26T12:55:59.082Z,12.82
2018-03-26T13:01:49.966Z,10.93
2018-03-26T13:07:40.868Z,12.08
2018-03-26T13:13:31.776Z,12.69
2018-03-26T13:19:22.659Z,13.06
2018-03-26T13:25:13.623Z,11.67
2018-03-26T13:31:04.489Z,12.37
2018-03-26T13:36:55.425Z,10.17
2018-03-26T13:42:46.299Z,9.24
2018-03-26T13:48:37.236Z,10.61
2018-03-26T13:54:28.143Z,12.55
2018-03-26T14:00:19.067Z,12.03
2018-03-26T14:06:09.974Z,10.46
2018-03-26T14:12:00.901Z,11.24
2018-03-26T14:17:51.794Z,11.34
2018-03-26T14:23:42.732Z,20.23
2018-03-26T14:29:33.782Z,18.78
2018-03-26T14:35:24.645Z,14.14
2018-03-26T14:41:15.597Z,11.18
2018-03-26T14:47:06.414Z,14.61
2018-03-26T14:52:57.338Z,26.5
2018-03-26T14:58:48.238Z,26.69
2018-03-26T15:04:39.129Z,27.51
2018-03-26T15:10:30.041Z,23.94
2018-03-26T15:16:20.982Z,17.54
2018-03-26T15:22:11.884Z,15.15
2018-03-26T15:28:02.778Z,15.71
2018-03-26T15:33:53.680Z,15.52
2018-03-26T15:39:44.586Z,18.64
2018-03-26T15:45:35.473Z,15.22
2018-03-26T15:51:26.376Z,13.5
2018-03-26T15:57:17.292Z,11.64
2018-03-26T16:03:08.163Z,11
2018-03-26T16:08:59.077Z,10.27
2018-03-26T16:14:50.002Z,9.17
2018-03-26T16:20:40.830Z,10.39
2018-03-26T16:26:31.748Z,7.91
2018-03-26T16:32:22.622Z,9.09
2018-03-26T16:38:13.547Z,7.18
2018-03-26T16:44:04.442Z,7.83
2018-03-26T16:49:55.369Z,8.62
2018-03-26T16:55:46.261Z,8.07
2018-03-26T17:01:37.083Z,7.77
2018-03-26T17:07:27.947Z,6.58
2018-03-26T17:13:18.841Z,6.16
2018-03-26T17:19:09.763Z,6.17
2018-03-26T17:25:00.625Z,6.9
2018-03-26T17:30:51.491Z,7.96
2018-03-26T17:36:42.381Z,8.72
2018-03-26T17:42:33.278Z,8.92
2018-03-26T17:48:24.149Z,8.31
2018-03-26T17:54:15.053Z,10.91
2018-03-26T18:00:05.930Z,16.67
2018-03-26T18:05:56.755Z,11.04
2018-03-26T18:11:47.631Z,36.01
2018-03-26T18:17:38.558Z,26.72
2018-03-26T18:23:29.492Z,17.03
2018-03-26T18:29:20.301Z,18.16
2018-03-26T18:35:11.173Z,14.86
2018-03-26T18:41:02.012Z,10.93
2018-03-26T18:46:52.939Z,15.5
2018-03-26T18:52:43.770Z,13.91
2018-03-26T18:58:34.638Z,18.35
2018-03-26T19:04:25.547Z,14.55
2018-03-26T19:10:16.407Z,13.45
2018-03-26T19:16:07.280Z,20.1
2018-03-26T19:21:58.121Z,16.51
2018-03-26T19:27:49.036Z,15.89
2018-03-26T19:33:39.867Z,15.27
2018-03-26T19:39:30.764Z,14.11
2018-03-26T19:45:21.629Z,12.63
2018-03-26T19:51:12.532Z,11.11
2018-03-26T19:57:03.421Z,14.07
2018-03-26T20:02:54.229Z,12.16
2018-03-26T20:08:45.155Z,12.94
2018-03-26T20:14:35.993Z,16.83
2018-03-26T20:20:26.854Z,20.73
2018-03-26T20:26:17.764Z,25.33
2018-03-26T20:32:08.611Z,19.29
2018-03-26T20:37:59.496Z,19.99
2018-03-26T20:43:50.376Z,19.43
2018-03-26T20:49:41.207Z,19.15
2018-03-26T20:55:32.061Z,23.39
2018-03-26T21:01:22.961Z,26.57
2018-03-26T21:07:13.838Z,18.37
2018-03-26T21:13:04.689Z,21.33
2018-03-26T21:18:55.546Z,28.77
2018-03-26T21:24:46.422Z,33.89
2018-03-26T21:30:37.323Z,30.53
2018-03-26T21:36:28.159Z,31.5
2018-03-26T21:42:18.977Z,27.7
2018-03-26T21:48:09.884Z,26.93
2018-03-26T21:54:00.725Z,29.99
2018-03-26T21:59:51.698Z,21.27
2018-03-26T22:05:42.460Z,22.31
2018-03-26T22:11:33.337Z,21.9
2018-03-26T22:17:24.195Z,25.31
2018-03-26T22:23:15.042Z,19.87
2018-03-26T22:29:05.922Z,19.5
2018-03-26T22:34:56.799Z,16.86
2018-03-26T22:40:47.656Z,15.77
2018-03-26T22:46:38.503Z,18.83
2018-03-26T22:52:29.357Z,15.31
2018-03-26T22:58:20.230Z,18.31
2018-03-26T23:04:11.065Z,13.67
2018-03-26T23:10:01.967Z,15.21
2018-03-26T23:15:52.823Z,13.66
2018-03-26T23:21:43.667Z,14.89
2018-03-26T23:27:34.518Z,16.31
2018-03-26T23:33:25.388Z,24.96
2018-03-26T23:39:16.323Z,23.33
2018-03-26T23:45:07.120Z,32.76
2018-03-26T23:50:58.014Z,28.21
2018-03-26T23:56:48.841Z,29.04
